Time,TemperatureF,DewpointF,PressureIn,WindDirection,WindDirectionDegrees,WindSpeedMPH,WindSpeedGustMPH,Humidity,HourlyPrecipIn,Conditions,Clouds,dailyrainin,SoftwareType,DateUTC
2013-09-07 00:13:00,72.0,61.0,29.90,South,169,1.0,-999.0,69,-99.99,,,-99.99,,2013-09-07 05:13:00,
2013-09-07 00:23:00,72.0,61.0,29.89,SSE,154,1.0,-999.0,69,-99.99,,,-99.99,,2013-09-07 05:23:00,
2013-09-07 00:52:00,71.0,61.0,29.90,South,174,0.0,-999.0,70,-99.99,,,-99.99,,2013-09-07 05:52:00,
2013-09-07 01:13:00,71.0,61.0,29.90,SSE,165,1.0,-999.0,70,-99.99,,,-99.99,,2013-09-07 06:13:00,
2013-09-07 01:21:00,71.0,61.0,29.90,SSE,157,1.0,-999.0,70,-99.99,,,-99.99,,2013-09-07 06:21:00,
2013-09-07 01:42:00,71.0,61.0,29.90,South,180,2.0,-999.0,70,-99.99,,,-99.99,,2013-09-07 06:42:00,
2013-09-07 01:52:00,71.0,61.0,29.90,SSW,206,1.0,-999.0,70,-99.99,,,-99.99,,2013-09-07 06:52:00,
2013-09-07 02:12:00,71.0,61.0,29.90,SSW,205,1.0,-999.0,70,-99.99,,,-99.99,,2013-09-07 07:12:00,
2013-09-07 02:22:00,71.0,61.0,29.90,SSW,198,1.0,-999.0,70,-99.99,,,-99.99,,2013-09-07 07:22:00,
2013-09-07 02:52:00,71.0,61.0,29.90,SSW,201,1.0,-999.0,71,-99.99,,,-99.99,,2013-09-07 07:52:00,
2013-09-07 03:12:00,72.0,62.0,29.90,SSW,198,2.0,-999.0,70,-99.99,,,-99.99,,2013-09-07 08:12:00,
2013-09-07 03:22:00,72.0,62.0,29.90,SW,216,2.0,-999.0,70,-99.99,,,-99.99,,2013-09-07 08:22:00,
2013-09-07 03:53:00,70.0,61.0,29.89,SSW,200,0.0,-999.0,74,-99.99,,,-99.99,,2013-09-07 08:53:00,
2013-09-07 04:12:00,69.0,61.0,29.88,SSW,199,0.0,-999.0,76,-99.99,,,-99.99,,2013-09-07 09:12:00,
2013-09-07 04:21:00,69.0,62.0,29.89,SSW,196,0.0,-999.0,78,-99.99,,,-99.99,,2013-09-07 09:21:00,
2013-09-07 04:42:00,69.0,62.0,29.88,SSW,192,0.0,-999.0,79,-99.99,,,-99.99,,2013-09-07 09:42:00,
2013-09-07 04:52:00,69.0,62.0,29.88,South,191,1.0,-999.0,78,-99.99,,,-99.99,,2013-09-07 09:52:00,
2013-09-07 05:11:00,69.0,61.0,29.87,SSW,194,1.0,-999.0,77,-99.99,,,-99.99,,2013-09-07 10:11:00,
2013-09-07 05:21:00,69.0,62.0,29.88,SSW,192,0.0,-999.0,78,-99.99,,,-99.99,,2013-09-07 10:21:00,
2013-09-07 05:41:00,69.0,62.0,29.87,SE,136,1.0,-999.0,78,-99.99,,,-99.99,,2013-09-07 10:41:00,
2013-09-07 05:52:00,69.0,62.0,29.88,SW,219,1.0,-999.0,79,-99.99,,,-99.99,,2013-09-07 10:52:00,
2013-09-07 06:13:00,69.0,62.0,29.87,South,184,1.0,-999.0,79,-99.99,,,-99.99,,2013-09-07 11:13:00,
2013-09-07 06:23:00,69.0,63.0,29.88,South,174,1.0,-999.0,80,-99.99,,,-99.99,,2013-09-07 11:23:00,
2013-09-07 06:52:00,68.0,62.0,29.88,SSE,165,0.0,-999.0,81,-99.99,,,-99.99,,2013-09-07 11:52:00,
2013-09-07 07:12:00,68.0,62.0,29.88,SSE,164,0.0,-999.0,81,-99.99,,,-99.99,,2013-09-07 12:12:00,
2013-09-07 07:22:00,68.0,62.0,29.88,SSE,160,0.0,-999.0,82,-99.99,,,-99.99,,2013-09-07 12:22:00,
2013-09-07 07:52:00,68.0,63.0,29.88,SSE,150,2.0,-999.0,84,-99.99,,,-99.99,,2013-09-07 12:52:00,
2013-09-07 08:12:00,68.0,63.0,29.88,SE,146,1.0,-999.0,85,-99.99,,,-99.99,,2013-09-07 13:12:00,
2013-09-07 08:21:00,68.0,64.0,29.88,SE,146,1.0,-999.0,86,-99.99,,,-99.99,,2013-09-07 13:21:00,
2013-09-07 08:52:00,70.0,65.0,29.88,SE,145,2.0,-999.0,85,-99.99,,,-99.99,,2013-09-07 13:52:00,
2013-09-07 09:11:00,71.0,65.0,29.85,East,91,5.0,-999.0,82,-99.99,,,-99.99,,2013-09-07 14:11:00,
2013-09-07 09:22:00,70.0,66.0,29.86,SE,142,4.0,-999.0,86,-99.99,,,-99.99,,2013-09-07 14:22:00,
2013-09-07 09:32:00,70.0,66.0,29.86,SE,142,4.0,-999.0,86,-99.99,,,-99.99,,2013-09-07 14:32:00,
2013-09-07 09:52:00,71.0,67.0,29.86,East,80,1.0,-999.0,86,-99.99,,,-99.99,,2013-09-07 14:52:00,
2013-09-07 10:11:00,74.0,68.0,29.86,SSE,154,0.0,-999.0,82,-99.99,,,-99.99,,2013-09-07 15:11:00,
2013-09-07 10:23:00,75.0,67.0,29.87,SSW,208,3.0,-999.0,76,-99.99,,,-99.99,,2013-09-07 15:23:00,
2013-09-07 10:54:00,78.0,68.0,29.86,SW,223,4.0,-999.0,71,-99.99,,,-99.99,,2013-09-07 15:54:00,
2013-09-07 11:24:00,80.0,68.0,29.86,SW,233,4.0,-999.0,67,-99.99,,,-99.99,,2013-09-07 16:24:00,
2013-09-07 11:53:00,82.0,69.0,29.86,SSW,212,3.0,-999.0,64,-99.99,,,-99.99,,2013-09-07 16:53:00,
2013-09-07 12:24:00,83.0,70.0,29.86,WSW,256,6.0,-999.0,64,-99.99,,,-99.99,,2013-09-07 17:24:00,
2013-09-07 12:43:00,84.0,70.0,29.85,WSW,239,3.0,-999.0,62,-99.99,,,-99.99,,2013-09-07 17:43:00,
2013-09-07 12:52:00,85.0,70.0,29.83,SSW,213,2.0,-999.0,60,-99.99,,,-99.99,,2013-09-07 17:52:00,
2013-09-07 13:13:00,85.0,69.0,29.83,WSW,257,3.0,-999.0,59,-99.99,,,-99.99,,2013-09-07 18:13:00,
2013-09-07 13:22:00,86.0,69.0,29.83,West,266,1.0,-999.0,58,-99.99,,,-99.99,,2013-09-07 18:22:00,
2013-09-07 13:52:00,86.0,70.0,29.83,NW,304,4.0,-999.0,59,-99.99,,,-99.99,,2013-09-07 18:52:00,
2013-09-07 14:11:00,86.0,70.0,29.83,WNW,291,4.0,-999.0,60,-99.99,,,-99.99,,2013-09-07 19:11:00,
2013-09-07 14:22:00,87.0,71.0,29.83,NW,309,4.0,-999.0,59,-99.99,,,-99.99,,2013-09-07 19:22:00,
2013-09-07 14:52:00,87.0,70.0,29.83,WSW,252,3.0,-999.0,58,-99.99,,,-99.99,,2013-09-07 19:52:00,
2013-09-07 15:22:00,88.0,71.0,29.82,West,264,3.0,-999.0,57,-99.99,,,-99.99,,2013-09-07 20:22:00,
2013-09-07 15:53:00,88.0,71.0,29.83,SW,231,3.0,-999.0,57,-99.99,,,-99.99,,2013-09-07 20:53:00,
2013-09-07 16:12:00,88.0,71.0,29.83,West,271,4.0,-999.0,58,-99.99,,,-99.99,,2013-09-07 21:12:00,
2013-09-07 16:22:00,88.0,71.0,29.82,WNW,286,2.0,-999.0,58,-99.99,,,-99.99,,2013-09-07 21:22:00,
2013-09-07 16:54:00,87.0,71.0,29.82,WSW,258,3.0,-999.0,59,-99.99,,,-99.99,,2013-09-07 21:54:00,
2013-09-07 17:13:00,87.0,71.0,29.82,South,190,2.0,-999.0,60,-99.99,,,-99.99,,2013-09-07 22:13:00,
2013-09-07 17:24:00,87.0,72.0,29.82,West,262,3.0,-999.0,61,-99.99,,,-99.99,,2013-09-07 22:24:00,
2013-09-07 17:53:00,86.0,71.0,29.82,West,274,3.0,-999.0,62,-99.99,,,-99.99,,2013-09-07 22:53:00,
2013-09-07 18:12:00,86.0,71.0,29.82,NW,311,5.0,-999.0,62,-99.99,,,-99.99,,2013-09-07 23:12:00,
2013-09-07 18:23:00,86.0,71.0,29.82,NW,311,2.0,-999.0,62,-99.99,,,-99.99,,2013-09-07 23:23:00,
2013-09-07 18:53:00,85.0,71.0,29.82,NW,311,3.0,-999.0,64,-99.99,,,-99.99,,2013-09-07 23:53:00,
2013-09-07 19:11:00,84.0,72.0,29.82,NW,325,4.0,-999.0,68,-99.99,,,-99.99,,2013-09-08 00:11:00,
2013-09-07 19:22:00,83.0,72.0,29.82,NNW,338,3.0,-999.0,70,-99.99,,,-99.99,,2013-09-08 00:22:00,
2013-09-07 19:42:00,83.0,73.0,29.83,NNW,338,2.0,-999.0,71,-99.99,,,-99.99,,2013-09-08 00:42:00,
2013-09-07 19:52:00,82.0,72.0,29.83,NNW,338,3.0,-999.0,72,-99.99,,,-99.99,,2013-09-08 00:52:00,
2013-09-07 20:11:00,82.0,72.0,29.83,NNW,338,2.0,-999.0,73,-99.99,,,-99.99,,2013-09-08 01:11:00,
2013-09-07 20:22:00,81.0,72.0,29.83,NNW,338,1.0,-999.0,74,-99.99,,,-99.99,,2013-09-08 01:22:00,
2013-09-07 20:42:00,81.0,72.0,29.83,NNW,338,1.0,-999.0,75,-99.99,,,-99.99,,2013-09-08 01:42:00,
2013-09-07 20:52:00,80.0,72.0,29.84,NNW,338,1.0,-999.0,77,-99.99,,,-99.99,,2013-09-08 01:52:00,
2013-09-07 21:11:00,79.0,71.0,29.84,NNW,338,1.0,-999.0,77,-99.99,,,-99.99,,2013-09-08 02:11:00,
2013-09-07 21:23:00,79.0,72.0,29.84,NNW,338,0.0,-999.0,79,-99.99,,,-99.99,,2013-09-08 02:23:00,
2013-09-07 21:43:00,78.0,71.0,29.85,NNW,338,1.0,-999.0,80,-99.99,,,-99.99,,2013-09-08 02:43:00,
2013-09-07 21:52:00,78.0,72.0,29.85,NNW,338,1.0,-999.0,82,-99.99,,,-99.99,,2013-09-08 02:52:00,
2013-09-07 22:23:00,77.0,71.0,29.85,NNW,338,2.0,-999.0,83,-99.99,,,-99.99,,2013-09-08 03:23:00,
2013-09-07 22:54:00,76.0,71.0,29.85,NNW,338,0.0,-999.0,84,-99.99,,,-99.99,,2013-09-08 03:54:00,
2013-09-07 23:02:00,-999.0,-99.9,29.85,NNW,338,1.0,-999.0,-999,-99.99,,,-99.99,,2013-09-08 04:02:00,
2013-09-07 23:24:00,75.0,70.0,29.85,NNW,338,1.0,-999.0,85,-99.99,,,-99.99,,2013-09-08 04:24:00,
2013-09-07 23:54:00,75.0,71.0,29.85,NNW,338,0.0,-999.0,86,-99.99,,,-99.99,,2013-09-08 04:54:00,